createdAt,value
2018-06-15T00:02:17.475Z,61.75
2018-06-15T00:04:45.091Z,61.83
2018-06-15T00:07:12.758Z,62.55
2018-06-15T00:09:40.345Z,62.41
2018-06-15T00:12:08.075Z,62.45
2018-06-15T00:14:35.751Z,61.88
2018-06-15T00:17:03.495Z,62.77
2018-06-15T00:19:31.144Z,63.54
2018-06-15T00:21:58.782Z,64.02
2018-06-15T00:24:26.543Z,64.22
2018-06-15T00:26:54.267Z,64.60
2018-06-15T00:29:21.922Z,64.77
2018-06-15T00:31:49.579Z,64.63
2018-06-15T00:34:17.458Z,64.97
2018-06-15T00:36:45.124Z,65.01
2018-06-15T00:39:13.597Z,64.84
2018-06-15T00:41:42.398Z,64.68
2018-06-15T00:44:10.231Z,64.22
2018-06-15T00:46:37.925Z,64.73
2018-06-15T00:49:06.102Z,64.76
2018-06-15T00:51:33.721Z,65.36
2018-06-15T00:54:02.140Z,65.17
2018-06-15T00:56:30.289Z,65.27
2018-06-15T00:58:57.963Z,64.83
2018-06-15T01:01:25.553Z,64.67
2018-06-15T01:03:54.491Z,65.04
2018-06-15T01:06:22.541Z,63.71
2018-06-15T01:08:50.547Z,64.17
2018-06-15T01:11:18.385Z,64.53
2018-06-15T01:13:46.039Z,64.59
2018-06-15T01:16:13.943Z,63.82
2018-06-15T01:18:41.604Z,64.47
2018-06-15T01:21:09.270Z,65.42
2018-06-15T01:23:37.003Z,65.45
2018-06-15T01:26:04.778Z,65.34
2018-06-15T01:28:33.455Z,65.77
2018-06-15T01:31:01.094Z,65.50
2018-06-15T01:33:28.788Z,65.92
2018-06-15T01:35:56.370Z,66.38
2018-06-15T01:38:24.029Z,65.71
2018-06-15T01:40:51.648Z,65.70
2018-06-15T01:43:19.294Z,66.15
2018-06-15T01:45:46.908Z,65.53
2018-06-15T01:48:14.578Z,65.97
2018-06-15T01:50:42.218Z,65.76
2018-06-15T01:53:09.912Z,66.25
2018-06-15T01:55:38.056Z,66.39
2018-06-15T01:58:05.726Z,66.21
2018-06-15T02:00:33.328Z,66.74
2018-06-15T02:03:00.958Z,66.68
2018-06-15T02:05:28.658Z,67.67
2018-06-15T02:07:56.298Z,67.94
2018-06-15T02:10:23.913Z,68.27
2018-06-15T02:12:51.658Z,68.45
2018-06-15T02:15:19.278Z,68.54
2018-06-15T02:17:47.001Z,68.79
2018-06-15T02:20:14.645Z,69.13
2018-06-15T02:22:42.429Z,68.81
2018-06-15T02:25:10.131Z,69.17
2018-06-15T02:27:37.797Z,69.75
2018-06-15T02:30:05.548Z,69.92
2018-06-15T02:32:33.249Z,69.51
2018-06-15T02:35:00.885Z,70.35
2018-06-15T02:37:28.601Z,69.76
2018-06-15T02:39:56.539Z,69.75
2018-06-15T02:42:24.203Z,70.22
2018-06-15T02:44:51.921Z,69.77
2018-06-15T02:47:19.529Z,69.56
2018-06-15T02:49:47.158Z,69.51
2018-06-15T02:52:14.794Z,69.89
2018-06-15T02:54:42.507Z,69.59
2018-06-15T02:57:10.114Z,69.83
2018-06-15T02:59:38.710Z,70.17
2018-06-15T03:02:06.414Z,70.22
2018-06-15T03:04:34.562Z,69.88
2018-06-15T03:07:02.246Z,70.52
2018-06-15T03:09:29.873Z,69.91
2018-06-15T03:11:57.514Z,70.04
2018-06-15T03:14:25.147Z,70.15
2018-06-15T03:16:52.874Z,70.58
2018-06-15T03:19:20.479Z,70.53
2018-06-15T03:21:48.185Z,70.22
2018-06-15T03:24:15.835Z,70.70
2018-06-15T03:26:44.241Z,70.21
2018-06-15T03:29:11.977Z,70.10
2018-06-15T03:31:39.961Z,69.96
2018-06-15T03:34:07.803Z,69.68
2018-06-15T03:36:35.391Z,69.71
2018-06-15T03:39:04.943Z,69.15
2018-06-15T03:41:32.609Z,68.72
2018-06-15T03:44:00.212Z,68.83
2018-06-15T03:46:27.902Z,68.65
2018-06-15T03:48:55.590Z,68.13
2018-06-15T03:51:23.134Z,67.47
2018-06-15T03:53:50.796Z,67.75
2018-06-15T03:56:18.470Z,67.96
2018-06-15T03:58:46.104Z,67.00
2018-06-15T04:01:13.771Z,68.01
2018-06-15T04:03:41.350Z,66.79
2018-06-15T04:06:08.955Z,66.25
2018-06-15T04:08:36.579Z,66.29
2018-06-15T04:11:04.194Z,66.23
2018-06-15T04:13:31.885Z,65.60
2018-06-15T04:15:59.578Z,65.53
2018-06-15T04:18:27.212Z,64.80
2018-06-15T04:20:54.952Z,64.55
2018-06-15T04:23:22.572Z,64.09
2018-06-15T04:25:50.193Z,62.83
2018-06-15T04:28:17.813Z,62.46
2018-06-15T04:30:45.451Z,61.38
2018-06-15T04:33:13.148Z,59.90
2018-06-15T04:35:40.841Z,58.86
2018-06-15T04:38:08.485Z,58.57
2018-06-15T04:40:36.139Z,57.54
2018-06-15T04:43:03.856Z,57.42
2018-06-15T04:45:31.541Z,57.79
2018-06-15T04:47:59.177Z,56.97
2018-06-15T04:50:26.829Z,56.42
2018-06-15T04:52:54.435Z,56.08
2018-06-15T04:55:22.851Z,55.67
2018-06-15T04:57:50.763Z,55.57
2018-06-15T05:00:18.397Z,54.55
2018-06-15T05:02:46.052Z,54.32
2018-06-15T05:05:13.726Z,54.23
2018-06-15T05:07:41.361Z,56.08
2018-06-15T05:10:09.014Z,55.12
2018-06-15T05:12:36.703Z,54.46
2018-06-15T05:15:04.434Z,53.31
2018-06-15T05:17:32.114Z,53.19
2018-06-15T05:19:59.888Z,52.41
2018-06-15T05:22:27.558Z,51.90
2018-06-15T05:24:55.208Z,51.16
2018-06-15T05:27:22.970Z,51.73
2018-06-15T05:29:50.681Z,50.50
2018-06-15T05:32:18.590Z,49.73
2018-06-15T05:34:46.287Z,49.86
2018-06-15T05:37:13.986Z,48.20
2018-06-15T05:39:41.646Z,48.07
2018-06-15T05:42:09.411Z,50.08
2018-06-15T05:44:37.053Z,48.92
2018-06-15T05:47:04.757Z,47.78
2018-06-15T05:49:32.392Z,48.32
2018-06-15T05:52:00.924Z,47.73
2018-06-15T05:54:28.682Z,47.25
2018-06-15T05:56:56.344Z,47.45
2018-06-15T05:59:24.006Z,47.55
2018-06-15T06:01:52.200Z,47.54
2018-06-15T06:04:19.876Z,49.43
2018-06-15T06:06:48.048Z,49.45
2018-06-15T06:09:15.778Z,48.56
2018-06-15T06:11:43.422Z,48.16
2018-06-15T06:14:11.084Z,47.68
2018-06-15T06:16:38.709Z,46.86
2018-06-15T06:19:06.344Z,47.31
2018-06-15T06:21:34.012Z,48.37
2018-06-15T06:24:01.698Z,48.07
2018-06-15T06:26:29.310Z,47.29
2018-06-15T06:28:57.004Z,45.75
2018-06-15T06:31:24.671Z,45.61
2018-06-15T06:33:53.053Z,47.08
2018-06-15T06:36:20.731Z,48.62
2018-06-15T06:38:48.427Z,47.39
2018-06-15T06:41:16.057Z,46.45
2018-06-15T06:43:43.803Z,46.15
2018-06-15T06:46:11.458Z,44.79
2018-06-15T06:48:39.111Z,43.87
2018-06-15T06:51:06.784Z,42.52
2018-06-15T06:53:34.426Z,43.94
2018-06-15T06:56:02.107Z,45.22
2018-06-15T06:58:29.853Z,46.91
2018-06-15T07:00:57.459Z,46.17
2018-06-15T07:03:25.077Z,47.12
2018-06-15T07:05:52.687Z,46.58
2018-06-15T07:08:20.451Z,45.04
2018-06-15T07:10:48.114Z,44.88
2018-06-15T07:13:16.031Z,44.60
2018-06-15T07:15:43.647Z,44.94
2018-06-15T07:18:11.295Z,44.83
2018-06-15T07:20:39.009Z,43.96
2018-06-15T07:23:07.178Z,42.79
2018-06-15T07:25:35.534Z,41.64
2018-06-15T07:28:03.257Z,42.70
2018-06-15T07:30:30.926Z,41.08
2018-06-15T07:32:58.580Z,42.75
2018-06-15T07:35:26.496Z,41.63
2018-06-15T07:37:54.204Z,40.84
2018-06-15T07:40:21.812Z,41.98
2018-06-15T07:42:49.397Z,41.59
2018-06-15T07:45:16.937Z,40.11
2018-06-15T07:47:44.562Z,38.93
2018-06-15T07:50:12.169Z,38.15
2018-06-15T07:52:39.865Z,38.86
2018-06-15T07:55:07.521Z,38.98
2018-06-15T07:57:35.184Z,38.96
2018-06-15T08:00:02.943Z,39.24
2018-06-15T08:02:30.580Z,38.91
2018-06-15T08:04:58.180Z,39.89
2018-06-15T08:07:25.863Z,38.16
2018-06-15T08:09:53.842Z,37.50
2018-06-15T08:12:21.490Z,38.43
2018-06-15T08:14:49.190Z,37.88
2018-06-15T08:17:17.230Z,35.64
2018-06-15T08:19:44.863Z,37.63
2018-06-15T08:22:12.534Z,39.18
2018-06-15T08:24:40.216Z,38.88
2018-06-15T08:27:07.882Z,39.01
2018-06-15T08:29:35.472Z,38.45
2018-06-15T08:32:03.154Z,37.84
2018-06-15T08:34:30.759Z,37.46
2018-06-15T08:36:58.358Z,36.93
2018-06-15T08:39:26.085Z,37.68
2018-06-15T08:41:54.199Z,36.72
2018-06-15T08:44:21.823Z,36.96
2018-06-15T08:46:49.452Z,36.47
2018-06-15T08:49:17.102Z,37.91
2018-06-15T08:51:44.738Z,35.81
2018-06-15T08:54:12.342Z,35.98
2018-06-15T08:56:39.971Z,35.47
2018-06-15T08:59:07.657Z,35.48
2018-06-15T09:01:35.311Z,33.96
2018-06-15T09:04:02.970Z,34.36
2018-06-15T09:06:30.534Z,33.90
2018-06-15T09:08:58.199Z,33.55
2018-06-15T09:11:25.852Z,33.49
2018-06-15T09:13:53.521Z,33.95
2018-06-15T09:16:21.164Z,34.81
2018-06-15T09:18:48.858Z,34.57
2018-06-15T09:21:16.542Z,35.18
2018-06-15T09:23:44.206Z,34.82
2018-06-15T09:26:11.806Z,32.67
2018-06-15T09:28:39.418Z,33.57
2018-06-15T09:31:07.071Z,33.01
2018-06-15T09:33:34.878Z,33.27
2018-06-15T09:36:02.544Z,32.08
2018-06-15T09:38:30.252Z,32.94
2018-06-15T09:40:57.969Z,32.29
2018-06-15T09:43:25.621Z,32.15
2018-06-15T09:45:53.370Z,32.20
2018-06-15T09:48:21.210Z,33.06
2018-06-15T09:50:48.922Z,32.86
2018-06-15T09:53:16.654Z,33.69
2018-06-15T09:55:44.427Z,32.53
2018-06-15T09:58:12.186Z,31.31
2018-06-15T10:00:45.637Z,31.67
2018-06-15T10:03:13.545Z,31.61
2018-06-15T10:05:41.442Z,30.98
2018-06-15T10:08:09.199Z,30.76
2018-06-15T10:10:36.992Z,29.22
2018-06-15T10:13:04.937Z,30.77
2018-06-15T10:15:32.964Z,29.36
2018-06-15T10:18:00.942Z,28.22
2018-06-15T10:20:28.631Z,30.49
2018-06-15T10:22:56.505Z,31.41
2018-06-15T10:25:24.366Z,33.30
2018-06-15T10:27:52.537Z,31.35
2018-06-15T10:30:20.579Z,30.31
2018-06-15T10:32:48.215Z,29.04
2018-06-15T10:35:15.825Z,28.34
2018-06-15T10:37:43.527Z,27.91
2018-06-15T10:40:11.429Z,27.31
2018-06-15T10:42:39.277Z,24.65
2018-06-15T10:45:06.957Z,25.77
2018-06-15T10:47:34.945Z,28.59
2018-06-15T10:50:03.172Z,29.42
2018-06-15T10:52:31.177Z,30.34
2018-06-15T10:54:59.035Z,27.63
2018-06-15T10:57:26.661Z,25.67
2018-06-15T10:59:54.897Z,27.21
2018-06-15T11:02:22.610Z,28.67
2018-06-15T11:04:50.323Z,30.28
2018-06-15T11:07:17.956Z,30.72
2018-06-15T11:09:45.558Z,28.72
2018-06-15T11:12:13.354Z,30.03
2018-06-15T11:14:41.014Z,27.88
2018-06-15T11:17:08.630Z,28.24
2018-06-15T11:19:36.298Z,26.07
2018-06-15T11:22:04.035Z,26.20
2018-06-15T11:24:31.649Z,26.24
2018-06-15T11:26:59.271Z,24.83
2018-06-15T11:29:27.641Z,24.05
2018-06-15T11:31:55.281Z,23.96
2018-06-15T11:34:22.937Z,22.55
2018-06-15T11:36:50.539Z,24.04
2018-06-15T11:39:18.211Z,24.92
2018-06-15T11:41:45.823Z,23.98
2018-06-15T11:44:13.518Z,24.54
2018-06-15T11:46:41.172Z,24.45
2018-06-15T11:49:08.857Z,24.42
2018-06-15T11:51:36.519Z,22.60
2018-06-15T11:54:04.327Z,22.31
2018-06-15T11:56:32.082Z,21.05
2018-06-15T11:59:00.214Z,21.14
2018-06-15T12:01:27.927Z,22.27
2018-06-15T12:03:55.653Z,24.83
2018-06-15T12:06:23.338Z,24.58
2018-06-15T12:08:51.326Z,24.50
2018-06-15T12:11:18.996Z,25.66
2018-06-15T12:13:46.606Z,23.17
2018-06-15T12:16:14.678Z,21.53
2018-06-15T12:18:42.340Z,22.48
2018-06-15T12:21:10.168Z,22.50
2018-06-15T12:23:37.978Z,21.32
2018-06-15T12:26:05.738Z,21.51
2018-06-15T12:28:33.625Z,22.45
2018-06-15T12:31:01.470Z,21.58
2018-06-15T12:33:29.194Z,20.95
2018-06-15T12:35:56.924Z,18.84
2018-06-15T12:38:24.553Z,17.06
2018-06-15T12:40:52.533Z,18.02
2018-06-15T12:43:20.221Z,17.44
2018-06-15T12:45:48.064Z,17.60
2018-06-15T12:48:15.715Z,16.03
2018-06-15T12:50:43.385Z,15.51
2018-06-15T12:53:11.047Z,15.31
2018-06-15T12:55:38.725Z,17.03
2018-06-15T12:58:06.404Z,14.34
2018-06-15T13:00:34.184Z,17.82
2018-06-15T13:03:01.853Z,18.52
2018-06-15T13:05:29.570Z,18.62
2018-06-15T13:07:57.273Z,19.02
2018-06-15T13:10:25.226Z,20.17
2018-06-15T13:12:52.900Z,18.05
2018-06-15T13:15:20.516Z,18.46
2018-06-15T13:17:48.220Z,17.03
2018-06-15T13:20:15.978Z,19.93
2018-06-15T13:22:44.602Z,21.92
2018-06-15T13:25:12.309Z,21.26
2018-06-15T13:27:40.162Z,22.09
2018-06-15T13:30:07.938Z,20.93
2018-06-15T13:32:35.635Z,22.05
2018-06-15T13:35:03.352Z,24.12
2018-06-15T13:37:31.016Z,21.89
2018-06-15T13:39:58.719Z,20.21
2018-06-15T13:42:26.463Z,20.54
2018-06-15T13:44:54.164Z,20.82
2018-06-15T13:47:21.879Z,23.55
2018-06-15T13:49:49.559Z,23.96
2018-06-15T13:52:17.220Z,23.94
2018-06-15T13:54:45.287Z,22.05
2018-06-15T13:57:12.995Z,21.56
2018-06-15T13:59:40.648Z,21.57
2018-06-15T14:02:08.390Z,19.79
2018-06-15T14:04:36.015Z,18.17
2018-06-15T14:07:04.000Z,17.42
2018-06-15T14:09:32.359Z,16.66
2018-06-15T14:12:00.097Z,14.71
2018-06-15T14:14:27.818Z,13.16
2018-06-15T14:16:55.566Z,11.52
2018-06-15T14:19:23.292Z,10.87
2018-06-15T14:21:51.290Z,11.87
2018-06-15T14:24:18.966Z,14.17
2018-06-15T14:26:46.752Z,17.41
2018-06-15T14:29:14.351Z,18.84
2018-06-15T14:31:42.606Z,21.65
2018-06-15T14:34:10.397Z,21.91
2018-06-15T14:36:38.150Z,23.89
2018-06-15T14:39:08.372Z,24.74
2018-06-15T14:41:36.017Z,25.88
2018-06-15T14:44:03.708Z,26.56
2018-06-15T14:46:31.502Z,26.44
2018-06-15T14:48:59.202Z,27.52
2018-06-15T14:51:26.894Z,28.45
2018-06-15T14:53:54.503Z,28.63
2018-06-15T14:56:22.280Z,28.99
2018-06-15T14:58:50.014Z,28.34
2018-06-15T15:01:17.798Z,28.90
2018-06-15T15:03:45.599Z,29.43
2018-06-15T15:06:13.469Z,31.18
2018-06-15T15:08:41.209Z,31.32
2018-06-15T15:11:09.485Z,30.95
2018-06-15T15:13:37.193Z,31.06
2018-06-15T15:16:04.985Z,30.88
2018-06-15T15:18:32.695Z,31.31
2018-06-15T15:21:00.359Z,31.65
2018-06-15T15:23:28.007Z,31.48
2018-06-15T15:25:55.790Z,30.71
2018-06-15T15:28:23.504Z,30.58
2018-06-15T15:30:51.302Z,31.27
2018-06-15T15:33:19.032Z,31.24
2018-06-15T15:35:47.992Z,32.05
2018-06-15T15:38:15.715Z,32.01
2018-06-15T15:40:43.628Z,32.32
2018-06-15T15:43:11.302Z,31.77
2018-06-15T15:45:38.918Z,31.96
2018-06-15T15:48:06.646Z,31.69
2018-06-15T15:50:34.447Z,31.87
2018-06-15T15:53:09.441Z,32.07
2018-06-15T15:55:38.378Z,31.38
2018-06-15T15:58:07.324Z,32.73
2018-06-15T16:00:35.062Z,32.53
2018-06-15T16:03:03.094Z,31.97
2018-06-15T16:05:30.808Z,31.70
2018-06-15T16:07:58.450Z,31.76
2018-06-15T16:10:26.090Z,31.57
2018-06-15T16:12:53.719Z,30.92
2018-06-15T16:15:21.353Z,31.38
2018-06-15T16:17:48.940Z,31.34
2018-06-15T16:20:16.666Z,30.91
2018-06-15T16:22:44.238Z,31.34
2018-06-15T16:25:11.852Z,31.20
2018-06-15T16:27:39.472Z,31.52
2018-06-15T16:30:07.170Z,30.85
2018-06-15T16:32:34.858Z,31.24
2018-06-15T16:35:02.501Z,31.93
2018-06-15T16:37:30.102Z,31.76
2018-06-15T16:39:57.753Z,32.46
2018-06-15T16:42:25.475Z,31.56
2018-06-15T16:44:53.189Z,31.57
2018-06-15T16:47:20.966Z,31.78
2018-06-15T16:49:48.669Z,32.40
2018-06-15T16:52:16.289Z,32.50
2018-06-15T16:54:43.967Z,32.59
2018-06-15T16:57:11.889Z,33.52
2018-06-15T16:59:39.491Z,34.32
2018-06-15T17:02:07.156Z,33.44
2018-06-15T17:04:34.877Z,34.69
2018-06-15T17:07:02.610Z,33.71
2018-06-15T17:09:30.379Z,34.32
2018-06-15T17:11:58.011Z,35.31
2018-06-15T17:14:25.742Z,34.67
2018-06-15T17:16:53.387Z,34.68
2018-06-15T17:19:21.123Z,34.94
2018-06-15T17:21:48.765Z,34.62
2018-06-15T17:24:16.446Z,34.71
2018-06-15T17:26:44.328Z,34.91
2018-06-15T17:29:12.563Z,35.29
2018-06-15T17:31:40.738Z,35.83
2018-06-15T17:34:08.718Z,35.72
2018-06-15T17:36:41.315Z,37.04
2018-06-15T17:39:08.981Z,36.44
2018-06-15T17:41:36.691Z,36.13
2018-06-15T17:44:04.484Z,36.17
2018-06-15T17:46:32.168Z,36.34
2018-06-15T17:48:59.878Z,35.42
2018-06-15T17:51:27.560Z,34.59
2018-06-15T17:53:55.250Z,34.28
2018-06-15T17:56:22.916Z,34.62
2018-06-15T17:58:51.021Z,34.50
2018-06-15T18:01:18.651Z,34.86
2018-06-15T18:03:46.264Z,34.30
2018-06-15T18:06:13.857Z,35.28
2018-06-15T18:08:41.530Z,34.45
2018-06-15T18:11:09.118Z,34.92
2018-06-15T18:13:37.412Z,35.32
2018-06-15T18:16:05.095Z,35.48
2018-06-15T18:18:32.806Z,35.33
2018-06-15T18:21:00.402Z,35.06
2018-06-15T18:23:28.064Z,35.04
2018-06-15T18:25:55.637Z,37.29
2018-06-15T18:28:23.382Z,38.15
2018-06-15T18:30:51.035Z,38.79
2018-06-15T18:33:18.710Z,39.10
2018-06-15T18:35:46.543Z,40.13
2018-06-15T18:38:14.157Z,41.38
2018-06-15T18:40:41.796Z,41.54
2018-06-15T18:43:09.422Z,42.87
2018-06-15T18:45:37.045Z,43.53
2018-06-15T18:48:04.858Z,43.21
2018-06-15T18:50:32.850Z,43.93
2018-06-15T18:53:00.548Z,44.70
2018-06-15T18:55:28.228Z,45.23
2018-06-15T18:57:55.918Z,46.10
2018-06-15T19:00:23.645Z,45.55
2018-06-15T19:02:51.330Z,46.20
2018-06-15T19:05:19.572Z,46.42
2018-06-15T19:07:47.250Z,46.26
2018-06-15T19:10:14.951Z,46.55
2018-06-15T19:12:42.720Z,47.19
2018-06-15T19:15:10.374Z,47.39
2018-06-15T19:17:38.005Z,47.87
2018-06-15T19:20:05.701Z,47.63
2018-06-15T19:22:33.533Z,47.73
2018-06-15T19:25:01.247Z,47.62
2018-06-15T19:27:28.896Z,47.50
2018-06-15T19:29:56.575Z,47.51
2018-06-15T19:32:24.285Z,47.82
2018-06-15T19:34:51.993Z,47.02
2018-06-15T19:37:19.581Z,47.49
2018-06-15T19:39:47.265Z,47.17
2018-06-15T19:42:14.890Z,47.21
2018-06-15T19:44:42.839Z,47.60
2018-06-15T19:47:10.673Z,47.80
2018-06-15T19:49:38.406Z,48.36
2018-06-15T19:52:06.114Z,47.93
2018-06-15T19:54:33.820Z,47.72
2018-06-15T19:57:02.103Z,48.28
2018-06-15T19:59:29.758Z,47.20
2018-06-15T20:01:57.392Z,47.53
2018-06-15T20:04:25.190Z,47.37
2018-06-15T20:06:53.592Z,47.84
2018-06-15T20:09:21.351Z,47.92
2018-06-15T20:11:49.057Z,48.00
2018-06-15T20:14:16.837Z,48.49
2018-06-15T20:16:44.535Z,48.04
2018-06-15T20:19:12.257Z,48.28
2018-06-15T20:21:39.913Z,47.99
2018-06-15T20:24:07.573Z,48.56
2018-06-15T20:26:35.282Z,47.92
2018-06-15T20:29:03.042Z,48.55
2018-06-15T20:31:30.883Z,49.02
2018-06-15T20:33:58.606Z,48.89
2018-06-15T20:36:26.604Z,48.55
2018-06-15T20:38:54.291Z,49.16
2018-06-15T20:41:21.998Z,49.21
2018-06-15T20:43:49.665Z,49.18
2018-06-15T20:46:17.333Z,49.36
2018-06-15T20:48:45.014Z,49.70
2018-06-15T20:51:12.920Z,50.20
2018-06-15T20:56:14.900Z,50.50
2018-06-15T20:58:42.556Z,50.24
2018-06-15T21:01:10.339Z,50.68
2018-06-15T21:03:37.911Z,52.62
2018-06-15T21:06:05.640Z,52.23
2018-06-15T21:08:34.307Z,52.81
2018-06-15T21:11:02.123Z,53.32
2018-06-15T21:13:29.833Z,53.02
2018-06-15T21:15:57.515Z,53.87
2018-06-15T21:18:25.203Z,54.73
2018-06-15T21:20:52.966Z,54.64
2018-06-15T21:23:20.734Z,54.23
2018-06-15T21:25:48.367Z,54.65
2018-06-15T21:28:16.030Z,54.79
2018-06-15T21:30:43.707Z,54.62
2018-06-15T21:33:11.420Z,54.45
2018-06-15T21:35:39.702Z,54.47
2018-06-15T21:38:07.394Z,54.38
2018-06-15T21:40:35.018Z,54.30
2018-06-15T21:43:02.713Z,54.40
2018-06-15T21:45:30.409Z,55.15
2018-06-15T21:47:58.091Z,55.12
2018-06-15T21:50:25.775Z,55.36
2018-06-15T21:52:53.493Z,54.87
2018-06-15T21:55:21.193Z,55.36
2018-06-15T21:57:48.887Z,55.00
2018-06-15T22:00:16.647Z,55.19
2018-06-15T22:02:44.279Z,55.45
2018-06-15T22:05:12.107Z,54.63
2018-06-15T22:07:39.801Z,55.35
2018-06-15T22:10:07.463Z,54.78
2018-06-15T22:12:36.167Z,55.19
2018-06-15T22:15:03.829Z,55.41
2018-06-15T22:17:31.577Z,55.00
2018-06-15T22:19:59.224Z,54.30
2018-06-15T22:22:26.831Z,55.10
2018-06-15T22:24:55.036Z,54.61
2018-06-15T22:27:22.681Z,55.64
2018-06-15T22:29:50.342Z,55.50
2018-06-15T22:32:17.992Z,55.21
2018-06-15T22:34:45.648Z,56.11
2018-06-15T22:37:13.266Z,55.95
2018-06-15T22:39:40.927Z,56.06
2018-06-15T22:42:08.627Z,55.80
2018-06-15T22:44:36.277Z,56.70
2018-06-15T22:47:04.119Z,56.53
2018-06-15T22:49:31.745Z,56.53
2018-06-15T22:51:59.397Z,56.59
2018-06-15T22:54:27.069Z,56.41
2018-06-15T22:56:54.685Z,56.59
2018-06-15T22:59:22.283Z,56.87
2018-06-15T23:01:49.916Z,57.04
2018-06-15T23:04:17.591Z,56.97
2018-06-15T23:06:45.199Z,56.95
2018-06-15T23:09:12.875Z,56.97
2018-06-15T23:11:41.066Z,57.20
2018-06-15T23:14:08.733Z,57.35
2018-06-15T23:16:36.383Z,57.55
2018-06-15T23:19:03.999Z,58.03
2018-06-15T23:21:31.682Z,58.43
2018-06-15T23:24:00.025Z,58.45
2018-06-15T23:26:27.662Z,58.41
2018-06-15T23:28:55.267Z,57.67
2018-06-15T23:31:22.873Z,57.63
2018-06-15T23:33:50.562Z,58.26
2018-06-15T23:36:18.182Z,58.10
2018-06-15T23:38:45.796Z,58.14
2018-06-15T23:41:13.450Z,57.95
2018-06-15T23:43:41.038Z,58.45
2018-06-15T23:46:08.642Z,58.84
2018-06-15T23:48:36.279Z,58.77
2018-06-15T23:51:04.571Z,59.05
2018-06-15T23:53:32.181Z,59.32
2018-06-15T23:55:59.780Z,58.60
2018-06-15T23:58:27.701Z,58.89
